Time;durP1;ratioP1;P1;durP2;ratioP2;P2;SDS_P1;SDS_P2;PMS_P1;PMS_P2;Temp;Humidity;BMP_temperature;BMP_pressure;BME280_temperature;BME280_humidity;BME280_pressure;Samples;Min_cycle;Max_cycle;Signal;HPM_P1;HPM_P2
2023/05/17 00:00:26;;;;;;;2.10;0.98;;;;;;;7.51;65.42;100246.59;10404531;28;20096;-72
2023/05/17 00:05:28;;;;;;;3.22;0.80;;;;;;;7.65;64.44;100248.97;10421456;28;20041;-72
2023/05/17 00:10:30;;;;;;;3.00;0.85;;;;;;;7.59;64.27;100252.56;10403904;28;20044;-72
2023/05/17 00:15:32;;;;;;;3.67;1.13;;;;;;;7.50;64.64;100250.09;10421181;28;20038;-72
2023/05/17 00:20:35;;;;;;;4.43;0.80;;;;;;;7.46;65.73;100253.66;10422017;28;20128;-72
2023/05/17 00:25:37;;;;;;;2.50;1.10;;;;;;;7.34;65.39;100257.31;10420776;28;20112;-72
2023/05/17 00:30:38;;;;;;;3.25;0.90;;;;;;;7.39;66.38;100252.00;10420440;28;20073;-73
2023/05/17 00:35:40;;;;;;;2.50;0.75;;;;;;;7.01;67.71;100261.28;10420017;28;20041;-72
2023/05/17 00:40:42;;;;;;;3.05;0.88;;;;;;;7.12;67.00;100265.50;10422071;28;20068;-72
2023/05/17 00:45:44;;;;;;;4.70;0.90;;;;;;;7.00;67.79;100264.78;10403404;28;20057;-72
2023/05/17 00:50:47;;;;;;;4.15;1.00;;;;;;;7.00;67.92;100256.09;10386189;28;20041;-72
2023/05/17 00:55:49;;;;;;;5.05;0.90;;;;;;;7.13;67.28;100260.25;10401329;28;20047;-72
2023/05/17 01:00:51;;;;;;;6.25;0.93;;;;;;;7.14;67.80;100254.13;10386394;28;20041;-72
2023/05/17 01:05:54;;;;;;;4.70;1.13;;;;;;;7.23;66.95;100261.84;10401989;28;20064;-72
2023/05/17 01:11:15;;;;;;;4.90;0.80;;;;;;;7.25;66.45;100264.44;10384598;28;20072;-72
2023/05/17 01:16:20;;;;;;;8.10;1.10;;;;;;;7.31;65.89;100275.69;10418957;28;20499;-73
2023/05/17 01:21:41;;;;;;;2.65;1.13;;;;;;;7.13;67.58;100275.06;10402063;28;20077;-72
2023/05/17 01:26:46;;;;;;;7.78;1.40;;;;;;;7.10;68.17;100269.88;10401916;28;20151;-72
2023/05/17 01:31:48;;;;;;;4.13;0.93;;;;;;;7.19;67.81;100288.06;10400483;28;20457;-72
2023/05/17 01:36:50;;;;;;;2.15;0.77;;;;;;;7.12;68.64;100283.78;10417196;28;20049;-73
2023/05/17 01:42:21;;;;;;;3.28;0.90;;;;;;;6.97;70.25;100293.56;10417497;28;20069;-72
2023/05/17 01:47:55;;;;;;;4.95;1.52;;;;;;;7.01;70.34;100297.00;10418306;28;20136;-72
2023/05/17 01:53:34;;;;;;;4.65;1.10;;;;;;;6.78;71.94;100297.31;10417819;28;20079;-72
2023/05/17 01:58:44;;;;;;;3.40;1.33;;;;;;;6.83;73.14;100303.34;10417050;28;20440;-72
2023/05/17 02:03:50;;;;;;;6.55;1.38;;;;;;;6.81;73.46;100300.72;10402513;28;20053;-72
2023/05/17 02:08:52;;;;;;;4.65;1.98;;;;;;;6.96;73.16;100310.13;10417367;28;20042;-72
2023/05/17 02:13:54;;;;;;;7.03;2.10;;;;;;;6.93;73.61;100309.31;10416610;28;20041;-71
2023/05/17 02:18:55;;;;;;;5.38;1.73;;;;;;;6.91;74.36;100303.25;10399301;28;20041;-72
2023/05/17 02:23:58;;;;;;;10.15;2.20;;;;;;;6.87;74.97;100293.72;10398993;28;20057;-72
2023/05/17 02:28:59;;;;;;;7.70;1.83;;;;;;;6.72;75.95;100299.97;10383380;28;20044;-72
2023/05/17 02:34:02;;;;;;;5.68;2.15;;;;;;;6.87;75.41;100299.81;10381873;28;20054;-72
2023/05/17 02:39:03;;;;;;;5.43;1.95;;;;;;;6.75;75.86;100316.47;10416104;28;20045;-72
2023/05/17 02:44:05;;;;;;;8.07;1.98;;;;;;;6.60;77.11;100321.91;10398708;28;20511;-71
2023/05/17 02:49:07;;;;;;;7.90;2.15;;;;;;;6.64;77.67;100327.94;10401595;28;20049;-71
2023/05/17 02:54:09;;;;;;;5.57;2.03;;;;;;;6.61;78.06;100320.16;10424012;28;20056;-72
2023/05/17 02:59:10;;;;;;;7.07;2.38;;;;;;;6.63;77.90;100332.28;10405306;28;20091;-72
2023/05/17 03:04:15;;;;;;;5.75;1.98;;;;;;;6.45;79.28;100340.31;10405787;28;20045;-72
2023/05/17 03:09:17;;;;;;;13.38;2.13;;;;;;;6.40;79.90;100353.41;10424932;28;20038;-72
2023/05/17 03:14:22;;;;;;;5.10;2.00;;;;;;;6.42;80.20;100363.84;10406666;28;20046;-72
2023/05/17 03:19:24;;;;;;;5.22;2.33;;;;;;;6.57;79.72;100348.91;10389021;28;20045;-73
2023/05/17 03:24:27;;;;;;;8.15;2.03;;;;;;;6.33;80.57;100364.81;10389208;28;20391;-73
2023/05/17 03:29:29;;;;;;;5.50;2.15;;;;;;;6.25;81.18;100364.88;10407423;28;20136;-72
2023/05/17 03:34:31;;;;;;;6.70;2.00;;;;;;;6.27;81.74;100370.94;10389215;28;20045;-73
2023/05/17 03:39:33;;;;;;;6.57;2.42;;;;;;;6.42;81.24;100367.34;10442279;22;20371;-71
2023/05/17 03:44:35;;;;;;;8.32;2.20;;;;;;;6.27;82.48;100370.09;10429462;28;20107;-73
2023/05/17 03:49:37;;;;;;;5.65;1.85;;;;;;;6.14;83.80;100371.06;10444381;28;20467;-73
2023/05/17 03:54:39;;;;;;;9.13;2.20;;;;;;;6.31;83.08;100384.84;10462006;28;20064;-72
2023/05/17 03:59:41;;;;;;;6.72;2.67;;;;;;;6.53;81.83;100393.34;10443460;28;20045;-72
2023/05/17 04:04:51;;;;;;;5.00;2.00;;;;;;;6.35;83.59;100383.94;10445028;28;20103;-72
2023/05/17 04:10:01;;;;;;;5.18;2.08;;;;;;;6.48;83.39;100393.38;10444541;28;20067;-72
2023/05/17 04:15:04;;;;;;;8.40;2.55;;;;;;;6.58;83.32;100392.41;10444642;28;20103;-72
2023/05/17 04:20:06;;;;;;;8.50;2.45;;;;;;;6.77;83.27;100387.00;10443414;28;20068;-72
2023/05/17 04:25:09;;;;;;;7.50;3.08;;;;;;;6.90;82.95;100401.66;10443702;28;20419;-72
2023/05/17 04:30:12;;;;;;;9.23;2.75;;;;;;;6.98;83.97;100401.59;10443122;28;20041;-72
2023/05/17 04:35:14;;;;;;;7.55;2.85;;;;;;;7.39;81.62;100392.38;10460877;28;20114;-72
2023/05/17 04:40:18;;;;;;;6.25;2.63;;;;;;;7.41;81.98;100394.09;10442268;28;20045;-73
2023/05/17 04:45:21;;;;;;;9.65;2.70;;;;;;;7.82;79.86;100405.72;10425740;28;20052;-72
2023/05/17 04:50:24;;;;;;;7.97;2.60;;;;;;;8.13;78.54;100411.38;10441882;28;20411;-74
2023/05/17 04:55:26;;;;;;;7.40;2.58;;;;;;;8.31;78.03;100418.06;10441817;28;20044;-70
2023/05/17 05:00:28;;;;;;;13.57;3.58;;;;;;;8.50;77.70;100426.50;10460438;28;20409;-70
2023/05/17 05:05:36;;;;;;;7.70;2.70;;;;;;;8.64;77.76;100437.63;10441126;28;20048;-71
2023/05/17 05:10:38;;;;;;;6.00;3.35;;;;;;;8.69;77.90;100440.16;10458999;28;20056;-70
2023/05/17 05:15:40;;;;;;;7.50;3.83;;;;;;;8.74;76.79;100431.34;10424363;28;20063;-70
2023/05/17 05:20:42;;;;;;;9.50;3.83;;;;;;;8.47;80.08;100432.69;10459457;28;20049;-71
2023/05/17 05:25:45;;;;;;;7.88;4.55;;;;;;;8.40;80.38;100425.78;10441118;28;20045;-70
2023/05/17 05:30:47;;;;;;;7.90;3.60;;;;;;;8.65;80.01;100436.75;10459277;28;20037;-71
2023/05/17 05:35:51;;;;;;;11.00;4.30;;;;;;;8.81;79.51;100451.31;10458935;28;20055;-70
2023/05/17 05:40:53;;;;;;;11.55;3.60;;;;;;;9.26;77.71;100453.09;10457654;28;20033;-71
2023/05/17 05:45:55;;;;;;;9.32;3.80;;;;;;;9.32;76.84;100455.59;10457427;28;20486;-71
2023/05/17 05:50:57;;;;;;;7.45;3.38;;;;;;;9.49;77.52;100453.50;10457171;28;20443;-71
2023/05/17 05:55:59;;;;;;;8.90;3.50;;;;;;;9.58;76.53;100468.19;10457037;28;20045;-71
2023/05/17 06:01:01;;;;;;;7.88;3.83;;;;;;;9.84;75.18;100478.13;10458177;28;20063;-72
2023/05/17 06:06:06;;;;;;;8.85;3.70;;;;;;;10.38;71.91;100480.44;10458461;28;20099;-69
2023/05/17 06:11:08;;;;;;;8.18;3.95;;;;;;;9.94;74.52;100495.41;10440776;28;20386;-70
2023/05/17 06:16:10;;;;;;;9.38;3.60;;;;;;;10.04;74.84;100488.19;10458623;28;20410;-70
2023/05/17 06:21:14;;;;;;;10.10;3.95;;;;;;;10.44;73.65;100503.94;10458551;28;20069;-69
2023/05/17 06:26:16;;;;;;;8.95;3.85;;;;;;;10.53;74.15;100490.56;10450965;28;20055;-70
2023/05/17 06:31:18;;;;;;;8.60;3.92;;;;;;;10.99;72.98;100499.09;10472011;28;20529;-69
2023/05/17 06:36:22;;;;;;;7.78;3.33;;;;;;;11.63;69.00;100497.31;10471250;28;20041;-70
2023/05/17 06:41:25;;;;;;;12.25;3.33;;;;;;;11.56;69.63;100494.00;10470229;28;20107;-70
2023/05/17 06:46:27;;;;;;;8.93;3.95;;;;;;;11.72;69.33;100507.56;10470185;28;20078;-70
2023/05/17 06:51:29;;;;;;;14.88;3.70;;;;;;;12.02;67.34;100494.44;10469914;28;20029;-70
2023/05/17 06:56:31;;;;;;;8.77;4.10;;;;;;;11.52;69.02;100507.28;10469950;28;20479;-69
2023/05/17 07:01:36;;;;;;;6.60;3.65;;;;;;;11.97;68.55;100517.44;10469699;28;20056;-71
2023/05/17 07:06:40;;;;;;;9.48;4.05;;;;;;;11.82;67.33;100514.34;10469736;28;20484;-70
2023/05/17 07:11:41;;;;;;;7.82;3.58;;;;;;;12.14;65.55;100519.56;10470849;28;20037;-71
2023/05/17 07:16:43;;;;;;;9.32;4.78;;;;;;;12.67;65.52;100523.16;10452447;28;20069;-70
2023/05/17 07:21:45;;;;;;;7.28;4.22;;;;;;;12.97;62.89;100523.03;10471364;28;20040;-70
2023/05/17 07:26:47;;;;;;;10.90;3.70;;;;;;;12.16;65.36;100525.66;10470985;28;20044;-70
2023/05/17 07:31:52;;;;;;;10.45;3.83;;;;;;;12.19;65.36;100533.47;10470290;28;20045;-70
2023/05/17 07:36:54;;;;;;;9.38;4.25;;;;;;;12.00;64.05;100531.38;10465245;28;20550;-70
2023/05/17 07:41:56;;;;;;;8.30;3.80;;;;;;;12.49;61.49;100527.25;10444722;28;20562;-70
2023/05/17 07:46:58;;;;;;;9.80;4.53;;;;;;;12.52;62.18;100529.75;10463134;28;20060;-70
2023/05/17 07:52:01;;;;;;;9.02;4.30;;;;;;;12.75;60.54;100529.03;10463477;28;20064;-70
2023/05/17 07:57:03;;;;;;;8.65;4.13;;;;;;;12.95;60.41;100536.28;10463599;28;20099;-70
2023/05/17 08:02:05;;;;;;;7.60;4.05;;;;;;;12.76;59.89;100537.81;10461969;28;20037;-71
2023/05/17 08:07:07;;;;;;;11.65;3.85;;;;;;;12.94;58.81;100536.34;10461617;28;20124;-70
2023/05/17 08:12:08;;;;;;;14.82;3.35;;;;;;;13.16;60.67;100545.25;10461031;28;20041;-70
2023/05/17 08:17:10;;;;;;;8.10;4.22;;;;;;;13.39;57.42;100552.41;10461363;28;20068;-70
2023/05/17 08:22:12;;;;;;;6.40;2.97;;;;;;;12.81;59.08;100549.06;10460672;28;20112;-70
2023/05/17 08:27:14;;;;;;;13.05;3.92;;;;;;;12.42;58.65;100546.78;10460684;28;20068;-70
2023/05/17 08:32:16;;;;;;;8.30;3.53;;;;;;;13.37;56.30;100548.97;10461355;28;20394;-70
2023/05/17 08:37:18;;;;;;;11.20;2.85;;;;;;;13.49;54.46;100555.59;10460627;28;20053;-72
2023/05/17 08:42:26;;;;;;;8.35;2.65;;;;;;;12.90;55.07;100543.50;10461758;28;20036;-70
2023/05/17 08:47:32;;;;;;;8.32;3.00;;;;;;;13.16;56.86;100533.84;10460406;28;20037;-70
2023/05/17 08:52:36;;;;;;;7.65;3.00;;;;;;;11.98;57.86;100543.72;10460775;28;20033;-70
2023/05/17 08:57:39;;;;;;;6.00;2.60;;;;;;;12.09;59.55;100527.63;10460898;28;20426;-69
2023/05/17 09:02:41;;;;;;;12.57;3.50;;;;;;;13.15;59.72;100535.63;10460087;28;20044;-69
2023/05/17 09:07:43;;;;;;;9.90;3.80;;;;;;;13.58;55.03;100524.41;10460042;28;20041;-69
2023/05/17 09:12:45;;;;;;;5.70;2.78;;;;;;;13.12;55.38;100528.66;10459419;28;20037;-69
2023/05/17 09:17:51;;;;;;;5.60;2.95;;;;;;;12.93;56.11;100535.47;10459117;28;20131;-70
2023/05/17 09:22:54;;;;;;;6.72;3.28;;;;;;;13.48;55.56;100536.22;10459297;28;20045;-68
2023/05/17 09:28:01;;;;;;;6.30;2.95;;;;;;;12.67;56.51;100543.41;10458175;28;20052;-70
2023/05/17 09:33:07;;;;;;;11.23;3.45;;;;;;;11.82;60.19;100547.66;10458157;28;20079;-69
2023/05/17 09:38:11;;;;;;;9.17;3.37;;;;;;;11.86;58.81;100563.41;10471781;22;20033;-71
2023/05/17 09:43:15;;;;;;;7.25;3.40;;;;;;;11.63;58.78;100573.66;10459462;28;20335;-72
2023/05/17 09:48:18;;;;;;;12.52;4.07;;;;;;;11.56;59.47;100578.25;10458791;28;20048;-70
2023/05/17 09:53:38;;;;;;;7.03;3.40;;;;;;;11.66;60.23;100575.38;10440669;28;20114;-70
2023/05/17 09:58:41;;;;;;;8.77;3.20;;;;;;;11.36;59.70;100577.91;10459179;28;20053;-71
2023/05/17 10:03:43;;;;;;;9.18;3.35;;;;;;;11.62;60.51;100578.06;10440613;28;20051;-71
2023/05/17 10:08:50;;;;;;;7.22;3.20;;;;;;;11.56;59.40;100580.88;10458342;28;20450;-71
2023/05/17 10:14:04;;;;;;;6.93;2.88;;;;;;;11.91;58.57;100571.19;10439815;28;20049;-71
2023/05/17 10:19:07;;;;;;;5.78;3.03;;;;;;;12.13;57.45;100581.97;10460311;28;20479;-71
2023/05/17 10:24:10;;;;;;;5.22;2.38;;;;;;;12.78;56.24;100580.81;10458168;28;20402;-71
2023/05/17 10:29:14;;;;;;;7.28;2.88;;;;;;;12.63;57.12;100571.63;10458122;28;20116;-71
2023/05/17 10:34:17;;;;;;;8.05;2.83;;;;;;;12.69;53.24;100576.69;10457468;28;20051;-71
2023/05/17 10:39:21;;;;;;;6.30;2.47;;;;;;;13.12;48.68;100576.16;10440873;28;20556;-71
2023/05/17 10:44:23;;;;;;;11.13;2.90;;;;;;;13.61;49.81;100584.22;10462834;28;20099;-71
2023/05/17 10:49:29;;;;;;;5.18;2.05;;;;;;;13.11;50.95;100585.00;10457761;28;20083;-71
2023/05/17 10:54:35;;;;;;;7.68;2.65;;;;;;;12.83;51.07;100578.91;10457558;28;20053;-71
2023/05/17 10:59:55;;;;;;;6.50;2.53;;;;;;;13.55;51.46;100577.38;10457001;28;20132;-71
2023/05/17 11:04:59;;;;;;;6.60;2.25;;;;;;;13.92;47.43;100573.38;10457998;28;20448;-70
2023/05/17 11:10:07;;;;;;;5.15;1.98;;;;;;;14.87;44.25;100561.78;10440785;28;20383;-71
2023/05/17 11:15:16;;;;;;;5.82;2.28;;;;;;;15.04;43.48;100569.03;10446959;28;20045;-71
2023/05/17 11:20:24;;;;;;;6.85;2.45;;;;;;;14.43;45.38;100576.75;10447084;28;20049;-70
2023/05/17 11:25:29;;;;;;;6.95;2.20;;;;;;;13.55;47.34;100585.28;10466298;28;20457;-71
2023/05/17 11:30:31;;;;;;;9.48;2.20;;;;;;;14.04;45.02;100572.94;10446722;28;20069;-71
2023/05/17 11:35:35;;;;;;;6.47;1.83;;;;;;;14.74;44.06;100565.84;10463847;28;20045;-72
2023/05/17 11:40:37;;;;;;;5.13;1.73;;;;;;;15.88;43.86;100538.88;10446434;28;20037;-70
2023/05/17 11:45:49;;;;;;;6.13;2.05;;;;;;;15.00;43.22;100551.53;10445512;28;20506;-71
2023/05/17 11:50:55;;;;;;;4.40;1.83;;;;;;;13.73;44.33;100562.63;10447811;28;20095;-71
2023/05/17 11:56:03;;;;;;;8.63;2.33;;;;;;;14.27;43.20;100552.69;10428712;28;20051;-71
2023/05/17 12:01:04;;;;;;;4.97;1.95;;;;;;;14.74;41.80;100549.97;10462964;28;20107;-72
2023/05/17 12:06:14;;;;;;;5.15;1.90;;;;;;;14.85;42.13;100545.09;10462848;28;20120;-71
2023/05/17 12:11:17;;;;;;;6.47;2.22;;;;;;;16.07;42.64;100545.09;10445924;28;20086;-71
2023/05/17 12:16:21;;;;;;;7.60;2.20;;;;;;;15.41;42.48;100544.50;10444922;28;20049;-71
2023/05/17 12:21:23;;;;;;;5.32;1.85;;;;;;;15.62;40.99;100543.53;10443545;28;20052;-72
2023/05/17 12:26:25;;;;;;;5.10;1.92;;;;;;;15.95;39.47;100540.34;10461712;28;20045;-71
2023/05/17 12:31:37;;;;;;;7.10;2.33;;;;;;;15.02;40.84;100550.56;10462619;28;20048;-71
2023/05/17 12:36:39;;;;;;;6.05;2.22;;;;;;;15.14;41.27;100559.78;10461988;28;20052;-71
2023/05/17 12:41:42;;;;;;;5.78;2.20;;;;;;;15.21;40.91;100552.44;10460985;28;20075;-70
2023/05/17 12:46:44;;;;;;;4.05;1.30;;;;;;;15.43;41.98;100574.41;10439862;28;20045;-71
2023/05/17 12:51:46;;;;;;;8.20;1.88;;;;;;;15.06;41.10;100570.69;10456478;28;20550;-71
2023/05/17 12:56:48;;;;;;;7.88;1.90;;;;;;;14.83;41.20;100573.41;10461072;28;20083;-70
2023/05/17 13:01:55;;;;;;;4.22;1.55;;;;;;;14.21;42.16;100574.97;10474159;28;20032;-68
2023/05/17 13:06:58;;;;;;;;;;;;;;;14.64;42.68;100558.28;10483976;28;20488;-69
2023/05/17 13:12:04;;;;;;;7.85;2.05;;;;;;;15.10;41.30;100563.50;10501293;28;19967;-70
2023/05/17 13:17:08;;;;;;;7.65;1.80;;;;;;;15.58;40.26;100556.97;10484679;28;20498;-71
2023/05/17 13:22:09;;;;;;;6.40;1.70;;;;;;;15.67;38.24;100561.03;10500952;28;20400;-71
2023/05/17 13:27:11;;;;;;;7.13;2.03;;;;;;;16.21;39.13;100570.97;10500820;28;20048;-71
2023/05/17 13:32:13;;;;;;;6.80;1.98;;;;;;;15.22;38.84;100578.84;10482128;28;20408;-70
2023/05/17 13:37:15;;;;;;;5.00;2.03;;;;;;;15.21;40.81;100563.88;10500679;28;20064;-72
2023/05/17 13:42:17;;;;;;;8.25;1.88;;;;;;;15.55;39.95;100568.59;10465227;28;20051;-71
2023/05/17 13:47:19;;;;;;;5.70;1.80;;;;;;;15.88;38.82;100568.91;10499314;28;20056;-70
2023/05/17 13:52:21;;;;;;;4.97;1.80;;;;;;;15.20;39.77;100586.00;10499402;28;20048;-71
2023/05/17 13:57:23;;;;;;;6.97;2.30;;;;;;;15.08;39.82;100590.00;10500825;28;20045;-71
2023/05/17 14:02:25;;;;;;;4.97;1.80;;;;;;;14.62;39.61;100586.59;10481637;28;20042;-71
2023/05/17 14:07:27;;;;;;;9.52;2.00;;;;;;;14.81;39.45;100576.13;10499476;28;20047;-70
2023/05/17 14:12:29;;;;;;;5.55;1.70;;;;;;;15.01;38.86;100563.88;10499276;28;20119;-71
2023/05/17 14:17:32;;;;;;;7.53;2.03;;;;;;;15.81;39.66;100583.38;10499167;28;20479;-70
2023/05/17 14:22:33;;;;;;;4.60;1.77;;;;;;;16.23;37.59;100587.66;10500388;28;20036;-70
2023/05/17 14:27:36;;;;;;;6.25;2.22;;;;;;;16.24;37.41;100585.84;10498697;28;20048;-71
2023/05/17 14:32:38;;;;;;;6.75;1.60;;;;;;;16.62;37.56;100595.53;10498895;28;20096;-70
2023/05/17 14:37:39;;;;;;;4.50;1.75;;;;;;;16.75;37.94;100594.97;10498888;28;20131;-70
2023/05/17 14:42:42;;;;;;;4.65;1.80;;;;;;;16.58;37.58;100583.34;10485359;28;20041;-71
2023/05/17 14:47:43;;;;;;;4.32;1.58;;;;;;;16.49;36.40;100589.09;10446056;28;20438;-71
2023/05/17 14:52:46;;;;;;;8.40;1.98;;;;;;;16.07;36.12;100584.84;10464886;28;20044;-70
2023/05/17 14:57:50;;;;;;;5.22;1.55;;;;;;;16.25;36.70;100585.81;10447634;28;20063;-71
2023/05/17 15:02:52;;;;;;;5.72;1.70;;;;;;;16.72;36.06;100589.78;10447548;28;20099;-71
2023/05/17 15:07:54;;;;;;;3.85;1.40;;;;;;;16.67;34.21;100592.66;10447018;28;20441;-70
2023/05/17 15:12:56;;;;;;;6.13;1.85;;;;;;;16.33;34.83;100586.28;10465189;28;20116;-71
2023/05/17 15:17:58;;;;;;;4.82;2.00;;;;;;;15.75;37.20;100593.38;10463816;28;20565;-71
2023/05/17 15:23:00;;;;;;;8.77;1.80;;;;;;;15.50;36.67;100599.72;10464607;28;20036;-71
2023/05/17 15:28:02;;;;;;;5.68;1.85;;;;;;;15.55;37.42;100592.44;10447990;28;20144;-70
2023/05/17 15:33:05;;;;;;;7.57;1.55;;;;;;;15.36;37.21;100578.25;10464508;28;20116;-70
2023/05/17 15:38:07;;;;;;;5.53;1.50;;;;;;;16.04;37.27;100582.34;10463556;28;20041;-69
2023/05/17 15:43:09;;;;;;;3.70;1.35;;;;;;;15.92;36.43;100572.28;10474359;22;20044;-71
2023/05/17 15:48:10;;;;;;;6.50;1.85;;;;;;;15.73;36.34;100568.75;10463844;28;20417;-71
2023/05/17 15:53:13;;;;;;;5.80;1.45;;;;;;;15.93;36.68;100566.03;10461862;28;20546;-70
2023/05/17 15:58:22;;;;;;;11.23;1.50;;;;;;;16.01;37.03;100558.59;10460390;28;20048;-70
2023/05/17 16:03:23;;;;;;;6.75;1.45;;;;;;;16.52;35.78;100554.44;10462201;28;20111;-70
2023/05/17 16:08:25;;;;;;;5.18;1.25;;;;;;;16.21;36.54;100565.66;10461571;28;20059;-70
2023/05/17 16:13:27;;;;;;;6.07;1.55;;;;;;;15.62;36.54;100562.06;10443393;28;20128;-70
2023/05/17 16:18:29;;;;;;;4.10;1.75;;;;;;;15.35;36.70;100565.94;10461530;28;20128;-69
2023/05/17 16:23:32;;;;;;;12.13;10.70;;;;;;;15.20;37.27;100561.31;10461220;28;20037;-69
2023/05/17 16:28:35;;;;;;;4.97;1.65;;;;;;;15.27;36.87;100568.03;10460990;28;20049;-70
2023/05/17 16:33:37;;;;;;;6.35;2.13;;;;;;;15.45;36.57;100580.53;10460637;28;20103;-70
2023/05/17 16:38:39;;;;;;;9.55;1.85;;;;;;;15.54;37.04;100581.91;10461037;28;20045;-70
2023/05/17 16:43:41;;;;;;;5.70;1.67;;;;;;;15.51;37.79;100587.34;10460745;28;20044;-70
2023/05/17 16:48:42;;;;;;;4.35;1.63;;;;;;;15.44;37.45;100586.72;10443200;28;20052;-70
2023/05/17 16:53:44;;;;;;;4.93;2.50;;;;;;;15.75;37.44;100596.88;10460213;28;20112;-71
2023/05/17 16:58:46;;;;;;;4.07;1.02;;;;;;;15.34;36.00;100609.25;10459754;28;20091;-71
2023/05/17 17:03:48;;;;;;;6.20;1.70;;;;;;;15.10;36.47;100608.50;10441591;28;20473;-70
2023/05/17 17:08:49;;;;;;;5.45;1.75;;;;;;;15.04;35.76;100603.44;10458655;28;20041;-70
2023/05/17 17:13:52;;;;;;;5.95;1.80;;;;;;;14.73;37.08;100614.41;10458808;28;20041;-70
2023/05/17 17:18:54;;;;;;;6.85;1.42;;;;;;;15.00;37.02;100618.59;10458860;28;20049;-69
2023/05/17 17:23:56;;;;;;;6.00;1.65;;;;;;;14.78;35.99;100623.88;10459493;28;20041;-71
2023/05/17 17:28:57;;;;;;;7.25;1.63;;;;;;;14.96;35.69;100627.56;10458160;28;20427;-71
2023/05/17 17:33:59;;;;;;;5.43;1.48;;;;;;;15.01;35.97;100638.88;10440356;28;20455;-71
2023/05/17 17:39:01;;;;;;;5.03;1.77;;;;;;;14.88;36.54;100640.28;10457825;28;20044;-71
2023/05/17 17:44:03;;;;;;;7.47;2.10;;;;;;;14.57;37.00;100652.06;10440215;28;20033;-71
2023/05/17 17:49:04;;;;;;;7.43;1.75;;;;;;;14.38;37.01;100651.84;10458123;28;20044;-71
2023/05/17 17:54:07;;;;;;;3.38;1.20;;;;;;;14.25;37.81;100645.28;10440564;28;20044;-71
2023/05/17 17:59:09;;;;;;;6.95;1.40;;;;;;;14.30;37.28;100650.44;10458135;28;20083;-71
2023/05/17 18:04:12;;;;;;;6.80;1.60;;;;;;;14.12;38.15;100658.13;10457779;28;20041;-71
2023/05/17 18:09:14;;;;;;;10.20;2.58;;;;;;;14.04;37.46;100657.53;10425138;28;20042;-71
2023/05/17 18:14:16;;;;;;;6.10;1.95;;;;;;;14.10;38.06;100662.59;10415531;28;20454;-70
2023/05/17 18:19:18;;;;;;;4.97;1.67;;;;;;;13.93;38.09;100662.31;10388541;28;20056;-71
2023/05/17 18:24:19;;;;;;;7.18;2.25;;;;;;;13.70;37.99;100662.28;10456192;28;20506;-70
2023/05/17 18:29:21;;;;;;;9.15;2.00;;;;;;;13.79;38.26;100667.25;10456815;28;20502;-70
2023/05/17 18:34:24;;;;;;;5.60;1.73;;;;;;;13.87;37.42;100666.06;10439114;28;20479;-70
2023/05/17 18:39:26;;;;;;;8.90;2.22;;;;;;;13.69;38.35;100674.63;10456319;28;20076;-70
2023/05/17 18:44:54;;;;;;;5.65;1.77;;;;;;;13.52;38.56;100685.75;10456342;28;20358;-69
2023/05/17 18:49:56;;;;;;;4.40;1.55;;;;;;;13.49;39.12;100685.00;10438816;28;20047;-71
2023/05/17 18:54:58;;;;;;;7.72;2.08;;;;;;;13.53;38.84;100698.03;10455941;28;20506;-70
2023/05/17 18:59:59;;;;;;;4.78;1.92;;;;;;;13.26;39.56;100698.97;10437834;28;20116;-70
2023/05/17 19:05:01;;;;;;;7.05;1.70;;;;;;;13.06;40.28;100710.13;10456020;28;20041;-70
2023/05/17 19:10:03;;;;;;;6.82;2.05;;;;;;;13.17;40.71;100710.63;10438197;28;20088;-70
2023/05/17 19:15:08;;;;;;;4.95;2.05;;;;;;;13.01;41.81;100720.78;10456309;28;20075;-70
2023/05/17 19:20:10;;;;;;;3.33;1.52;;;;;;;12.76;42.23;100717.19;10437697;28;20136;-71
2023/05/17 19:25:12;;;;;;;7.80;2.47;;;;;;;12.73;41.97;100730.47;10455844;28;20037;-72
2023/05/17 19:30:16;;;;;;;4.85;2.08;;;;;;;12.72;42.91;100731.38;10457014;28;20033;-70
2023/05/17 19:35:18;;;;;;;6.68;2.28;;;;;;;12.83;42.79;100735.41;10465916;28;20076;-71
2023/05/17 19:40:21;;;;;;;4.95;2.03;;;;;;;12.50;44.48;100739.91;10446154;28;20041;-70
2023/05/17 19:45:23;;;;;;;2.92;1.48;;;;;;;12.52;44.48;100737.22;10444543;28;20087;-71
2023/05/17 19:50:25;;;;;;;6.13;2.15;;;;;;;12.40;44.79;100748.13;10444196;28;20076;-71
2023/05/17 19:55:29;;;;;;;5.97;2.10;;;;;;;12.30;44.84;100753.63;10462079;28;20128;-71
2023/05/17 20:00:36;;;;;;;6.57;2.30;;;;;;;12.29;45.09;100756.31;10443766;28;20081;-71
2023/05/17 20:05:37;;;;;;;;;;;;;;;12.11;45.94;100757.69;10443677;28;20426;-71
2023/05/17 20:10:39;;;;;;;4.57;1.75;;;;;;;12.09;45.85;100767.41;10444743;28;19920;-71
2023/05/17 20:15:41;;;;;;;4.78;2.03;;;;;;;12.19;45.70;100765.41;10461368;28;20510;-70
2023/05/17 20:20:42;;;;;;;5.88;2.25;;;;;;;12.01;46.66;100764.13;10460642;28;20037;-71
2023/05/17 20:25:45;;;;;;;5.03;1.85;;;;;;;12.00;47.01;100771.16;10461814;28;20124;-70
2023/05/17 20:30:46;;;;;;;8.32;2.10;;;;;;;11.89;47.13;100772.31;10460539;28;20047;-70
2023/05/17 20:35:48;;;;;;;5.00;1.58;;;;;;;11.92;47.18;100777.53;10460508;28;20075;-70
2023/05/17 20:40:50;;;;;;;5.07;1.65;;;;;;;11.83;47.78;100771.59;10460338;28;20037;-71
2023/05/17 20:45:52;;;;;;;3.15;1.77;;;;;;;11.68;48.19;100782.44;10459436;28;20041;-70
2023/05/17 20:50:54;;;;;;;5.57;1.90;;;;;;;11.73;48.05;100784.97;10441864;28;20153;-70
2023/05/17 20:55:57;;;;;;;6.25;2.13;;;;;;;11.72;48.32;100785.88;10459761;28;20040;-71
2023/05/17 21:00:59;;;;;;;9.77;2.55;;;;;;;11.46;48.83;100790.00;10459404;28;20047;-70
2023/05/17 21:06:03;;;;;;;4.20;1.77;;;;;;;11.40;49.10;100787.50;10459763;28;20115;-70
2023/05/17 21:11:05;;;;;;;4.60;1.67;;;;;;;11.47;48.63;100791.75;10459201;28;20051;-70
2023/05/17 21:16:07;;;;;;;5.63;2.28;;;;;;;11.04;51.57;100807.63;10459274;28;20103;-71
2023/05/17 21:21:11;;;;;;;6.07;2.10;;;;;;;11.36;49.37;100805.13;10459025;28;20052;-71
2023/05/17 21:26:13;;;;;;;4.53;1.85;;;;;;;11.12;49.91;100810.97;10440535;28;20056;-70
2023/05/17 21:31:14;;;;;;;4.47;1.88;;;;;;;11.30;49.78;100810.56;10441145;28;20116;-71
2023/05/17 21:36:16;;;;;;;5.93;1.83;;;;;;;11.01;50.47;100819.06;10440142;28;20056;-70
2023/05/17 21:41:19;;;;;;;6.57;1.73;;;;;;;11.21;49.86;100818.66;10454476;22;20049;-73
2023/05/17 21:46:20;;;;;;;5.63;1.77;;;;;;;10.96;51.07;100820.06;10417213;28;20065;-73
2023/05/17 21:51:22;;;;;;;5.35;1.90;;;;;;;10.93;51.48;100823.63;10418144;28;20051;-73
2023/05/17 21:56:24;;;;;;;4.30;1.77;;;;;;;10.84;51.33;100823.81;10416888;28;20046;-74
2023/05/17 22:01:26;;;;;;;5.55;1.70;;;;;;;10.82;51.79;100821.22;10416237;28;20037;-74
2023/05/17 22:06:28;;;;;;;5.82;1.67;;;;;;;10.83;52.47;100827.34;10415939;28;20048;-73
2023/05/17 22:11:30;;;;;;;5.65;1.80;;;;;;;10.63;52.77;100822.50;10398739;28;20037;-72
2023/05/17 22:16:33;;;;;;;5.97;1.50;;;;;;;10.54;52.61;100828.78;10415760;28;20045;-72
2023/05/17 22:21:34;;;;;;;8.32;2.53;;;;;;;10.46;52.70;100827.19;10415712;28;20053;-72
2023/05/17 22:26:36;;;;;;;5.72;1.70;;;;;;;10.39;52.92;100830.81;10397877;28;20136;-72
2023/05/17 22:31:38;;;;;;;6.28;2.17;;;;;;;10.48;53.41;100830.66;10415728;28;20491;-72
2023/05/17 22:36:41;;;;;;;4.72;1.38;;;;;;;10.26;53.32;100828.41;10415565;28;20116;-73
2023/05/17 22:41:43;;;;;;;5.97;1.90;;;;;;;10.26;54.22;100835.44;10415613;28;20048;-72
2023/05/17 22:46:45;;;;;;;6.38;1.70;;;;;;;10.27;53.97;100834.53;10415290;28;20049;-72
2023/05/17 22:51:47;;;;;;;5.50;1.70;;;;;;;10.04;54.45;100834.91;10415334;28;20049;-73
2023/05/17 22:56:49;;;;;;;5.50;1.65;;;;;;;9.94;55.43;100849.09;10414859;28;20046;-72
2023/05/17 23:01:50;;;;;;;8.65;1.73;;;;;;;10.02;56.09;100836.69;10397443;28;20041;-73
2023/05/17 23:06:53;;;;;;;7.63;1.75;;;;;;;10.14;56.41;100841.75;10418080;28;20041;-72
2023/05/17 23:11:58;;;;;;;5.55;1.92;;;;;;;9.96;56.93;100837.66;10423087;28;20045;-72
2023/05/17 23:17:00;;;;;;;5.90;1.63;;;;;;;10.33;55.48;100837.06;10405056;28;20049;-72